createdAt,value
2022-11-03T00:01:46.824Z,99688.75
2022-11-03T00:04:17.425Z,99690.91
2022-11-03T00:06:46.487Z,99687.41
2022-11-03T00:09:14.757Z,99682.00
2022-11-03T00:11:42.935Z,99675.00
2022-11-03T00:14:10.384Z,99671.22
2022-11-03T00:16:38.116Z,99670.69
2022-11-03T00:19:05.222Z,99666.91
2022-11-03T00:21:32.729Z,99662.03
2022-11-03T00:23:59.598Z,99666.91
2022-11-03T00:26:28.601Z,99660.72
2022-11-03T00:28:57.564Z,99665.28
2022-11-03T00:31:26.564Z,99668.00
2022-11-03T00:33:54.008Z,99659.91
2022-11-03T00:36:23.677Z,99659.91
2022-11-03T00:38:50.820Z,99652.91
2022-11-03T00:41:18.879Z,99652.91
2022-11-03T00:43:45.432Z,99652.09
2022-11-03T00:46:11.985Z,99645.91
2022-11-03T00:48:38.773Z,99651.28
2022-11-03T00:51:13.089Z,99644.59
2022-11-03T00:53:48.157Z,99639.72
2022-11-03T00:56:16.168Z,99636.78
2022-11-03T00:58:43.303Z,99631.97
2022-11-03T01:01:24.969Z,99623.31
2022-11-03T01:04:13.348Z,99615.53
2022-11-03T01:06:51.229Z,99616.31
2022-11-03T01:09:25.085Z,99610.72
2022-11-03T01:11:58.668Z,99605.31
2022-11-03T01:14:29.991Z,99602.34
2022-11-03T01:16:56.605Z,99595.59
2022-11-03T01:19:24.065Z,99586.44
2022-11-03T01:21:51.349Z,99585.88
2022-11-03T01:24:17.949Z,99585.63
2022-11-03T01:26:44.512Z,99589.63
2022-11-03T01:29:11.209Z,99586.94
2022-11-03T01:31:37.783Z,99584.75
2022-11-03T01:34:04.331Z,99573.97
2022-11-03T01:36:30.867Z,99567.81
2022-11-03T01:38:57.688Z,99573.75
2022-11-03T01:41:27.435Z,99574.84
2022-11-03T01:44:09.290Z,99568.41
2022-11-03T01:46:43.251Z,99561.91
2022-11-03T01:49:17.521Z,99558.41
2022-11-03T01:51:49.439Z,99561.91
2022-11-03T01:54:20.664Z,99552.75
2022-11-03T01:56:47.559Z,99540.38
2022-11-03T01:59:20.999Z,99531.72
2022-11-03T02:01:48.402Z,99524.69
2022-11-03T02:04:21.030Z,99529.25
2022-11-03T02:06:52.444Z,99530.09
2022-11-03T02:09:20.419Z,99529.00
2022-11-03T02:12:05.952Z,99530.59
2022-11-03T02:14:32.732Z,99533.31
2022-11-03T02:17:04.073Z,99530.09
2022-11-03T02:19:39.572Z,99526.59
2022-11-03T02:22:15.122Z,99513.44
2022-11-03T02:24:54.294Z,99511.56
2022-11-03T02:27:21.470Z,99512.34
2022-11-03T02:29:48.570Z,99504.28
2022-11-03T02:32:28.744Z,99496.19
2022-11-03T02:35:14.057Z,99488.13
2022-11-03T02:37:47.960Z,99490.81
2022-11-03T02:40:47.722Z,99487.88
2022-11-03T02:43:17.008Z,99482.19
2022-11-03T02:45:47.310Z,99481.41
2022-11-03T02:48:17.014Z,99473.34
2022-11-03T02:50:43.980Z,99469.81
2022-11-03T02:53:15.615Z,99461.22
2022-11-03T02:55:54.200Z,99458.53
2022-11-03T02:58:38.255Z,99463.91
2022-11-03T03:01:17.837Z,99453.66
2022-11-03T03:03:52.376Z,99437.50
2022-11-03T03:06:24.599Z,99453.41
2022-11-03T03:08:59.376Z,99447.50
2022-11-03T03:11:39.214Z,99442.88
2022-11-03T03:14:13.968Z,99441.84
2022-11-03T03:16:47.661Z,99437.03
2022-11-03T03:19:23.671Z,99443.75
2022-11-03T03:21:54.801Z,99430.59
2022-11-03T03:24:25.704Z,99428.16
2022-11-03T03:26:59.028Z,99422.00
2022-11-03T03:29:31.640Z,99423.34
2022-11-03T03:32:03.787Z,99424.69
2022-11-03T03:34:35.171Z,99426.56
2022-11-03T03:37:05.003Z,99422.00
2022-11-03T03:39:35.929Z,99418.78
2022-11-03T03:42:04.951Z,99407.19
2022-11-03T03:44:32.800Z,99404.78
2022-11-03T03:47:06.544Z,99403.97
2022-11-03T03:49:33.085Z,99381.63
2022-11-03T03:51:59.654Z,99391.03
2022-11-03T03:54:26.164Z,99395.63
2022-11-03T03:57:02.027Z,99388.06
2022-11-03T03:59:28.816Z,99395.06
2022-11-03T04:01:55.500Z,99399.06
2022-11-03T04:04:22.306Z,99395.59
2022-11-03T04:06:49.032Z,99389.13
2022-11-03T04:09:15.559Z,99392.31
2022-11-03T04:12:00.410Z,99382.34
2022-11-03T04:14:45.356Z,99385.34
2022-11-03T04:17:38.861Z,99376.22
2022-11-03T04:20:32.148Z,99375.13
2022-11-03T04:22:58.638Z,99374.56
2022-11-03T04:25:25.163Z,99373.47
2022-11-03T04:27:51.708Z,99368.34
2022-11-03T04:30:20.633Z,99367.56
2022-11-03T04:32:49.141Z,99364.88
2022-11-03T04:35:20.635Z,99364.34
2022-11-03T04:37:54.162Z,99366.53
2022-11-03T04:40:21.062Z,99361.94
2022-11-03T04:42:47.821Z,99365.66
2022-11-03T04:45:22.599Z,99357.59
2022-11-03T04:47:49.529Z,99358.09
2022-11-03T04:50:19.821Z,99351.63
2022-11-03T04:52:48.101Z,99344.63
2022-11-03T04:55:16.762Z,99341.69
2022-11-03T04:57:44.513Z,99329.03
2022-11-03T05:00:19.117Z,99325.53
2022-11-03T05:02:50.278Z,99314.47
2022-11-03T05:05:21.873Z,99315.56
2022-11-03T05:07:51.561Z,99309.09
2022-11-03T05:10:24.548Z,99315.00
2022-11-03T05:12:53.633Z,99299.63
2022-11-03T05:15:38.370Z,99303.97
2022-11-03T05:18:17.477Z,99296.97
2022-11-03T05:20:51.622Z,99292.69
2022-11-03T05:23:19.227Z,99289.16
2022-11-03T05:25:49.769Z,99285.69
2022-11-03T05:28:33.511Z,99285.44
2022-11-03T05:31:00.217Z,99283.78
2022-11-03T05:33:34.180Z,99280.00
2022-11-03T05:36:13.643Z,99279.22
2022-11-03T05:38:40.196Z,99277.03
2022-11-03T05:41:16.087Z,99275.44
2022-11-03T05:43:42.637Z,99269.28
2022-11-03T05:46:11.132Z,99257.75
2022-11-03T05:48:43.872Z,99248.13
2022-11-03T05:51:21.155Z,99240.09
2022-11-03T05:53:52.258Z,99230.28
2022-11-03T05:56:21.662Z,99226.03
2022-11-03T05:58:50.983Z,99214.75
2022-11-03T06:01:31.477Z,99208.97
2022-11-03T06:04:12.529Z,99202.47
2022-11-03T06:06:39.315Z,99202.28
2022-11-03T06:09:25.274Z,99193.03
2022-11-03T06:11:54.249Z,99195.63
2022-11-03T06:14:26.116Z,99191.28
2022-11-03T06:16:57.062Z,99177.78
2022-11-03T06:19:31.378Z,99176.91
2022-11-03T06:22:13.988Z,99172.88
2022-11-03T06:24:41.051Z,99177.47
2022-11-03T06:27:28.269Z,99173.09
2022-11-03T06:30:17.975Z,99174.78
2022-11-03T06:32:44.530Z,99160.91
2022-11-03T06:35:14.136Z,99164.47
2022-11-03T06:37:42.216Z,99163.41
2022-11-03T06:40:11.574Z,99161.53
2022-11-03T06:42:41.396Z,99162.34
2022-11-03T06:45:26.763Z,99151.66
2022-11-03T06:47:54.596Z,99146.59
2022-11-03T06:50:25.518Z,99154.22
2022-11-03T06:52:53.086Z,99157.94
2022-11-03T06:55:22.720Z,99154.75
2022-11-03T06:57:53.329Z,99145.50
2022-11-03T07:00:40.978Z,99146.16
2022-11-03T07:03:21.259Z,99141.22
2022-11-03T07:05:47.905Z,99146.81
2022-11-03T07:08:17.745Z,99153.84
2022-11-03T07:10:44.599Z,99151.78
2022-11-03T07:13:15.610Z,99156.84
2022-11-03T07:15:45.376Z,99154.16
2022-11-03T07:18:31.858Z,99150.50
2022-11-03T07:21:01.826Z,99152.31
2022-11-03T07:23:30.830Z,99145.25
2022-11-03T07:26:02.144Z,99148.81
2022-11-03T07:28:36.544Z,99136.97
2022-11-03T07:31:16.509Z,99138.41
2022-11-03T07:33:44.036Z,99135.53
2022-11-03T07:36:18.450Z,99140.97
2022-11-03T07:38:48.041Z,99138.25
2022-11-03T07:41:19.649Z,99135.22
2022-11-03T07:43:58.464Z,99120.53
2022-11-03T07:46:26.423Z,99115.09
2022-11-03T07:49:02.820Z,99111.75
2022-11-03T07:51:33.872Z,99109.69
2022-11-03T07:54:15.963Z,99105.84
2022-11-03T07:56:45.525Z,99110.94
2022-11-03T07:59:18.648Z,99110.00
2022-11-03T08:01:49.496Z,99108.09
2022-11-03T08:04:23.265Z,99111.75
2022-11-03T08:06:50.077Z,99118.13
2022-11-03T08:09:16.810Z,99112.56
2022-11-03T08:11:43.663Z,99110.47
2022-11-03T08:14:10.599Z,99111.38
2022-11-03T08:16:37.574Z,99109.59
2022-11-03T08:19:04.122Z,99100.94
2022-11-03T08:21:30.768Z,99086.88
2022-11-03T08:23:57.377Z,99064.56
2022-11-03T08:26:24.014Z,99065.47
2022-11-03T08:28:50.721Z,99058.44
2022-11-03T08:31:17.247Z,99069.28
2022-11-03T08:33:44.357Z,99068.75
2022-11-03T08:36:11.284Z,99059.28
2022-11-03T08:38:37.902Z,99051.31
2022-11-03T08:41:04.760Z,99046.56
2022-11-03T08:43:31.367Z,99035.25
2022-11-03T08:46:04.407Z,99021.59
2022-11-03T08:48:36.858Z,99020.00
2022-11-03T08:51:03.503Z,99004.50
2022-11-03T08:53:30.216Z,99002.63
2022-11-03T08:55:57.038Z,98999.91
2022-11-03T08:58:23.570Z,98993.84
2022-11-03T09:00:50.549Z,98975.53
2022-11-03T09:03:17.677Z,98972.34
2022-11-03T09:05:44.396Z,98979.19
2022-11-03T09:10:57.523Z,98957.53
2022-11-03T09:13:24.120Z,98945.13
2022-11-03T09:15:50.672Z,98941.31
2022-11-03T09:18:19.767Z,98936.97
2022-11-03T09:20:46.416Z,98935.88
2022-11-03T09:23:13.074Z,98932.19
2022-11-03T09:25:39.645Z,98925.84
2022-11-03T09:28:06.643Z,98920.72
2022-11-03T09:30:33.505Z,98913.88
2022-11-03T09:33:00.192Z,98913.53
2022-11-03T09:35:27.879Z,98894.28
2022-11-03T09:37:54.404Z,98886.31
2022-11-03T09:40:21.792Z,98891.38
2022-11-03T09:42:48.666Z,98898.22
2022-11-03T09:45:15.207Z,98883.06
2022-11-03T09:47:43.499Z,98904.28
2022-11-03T09:50:19.219Z,98916.53
2022-11-03T09:52:51.494Z,98911.88
2022-11-03T09:55:34.141Z,98888.47
2022-11-03T09:58:09.582Z,98886.50
2022-11-03T10:00:36.177Z,98885.13
2022-11-03T10:03:04.944Z,98868.38
2022-11-03T10:05:32.176Z,98859.47
2022-11-03T10:08:05.749Z,98862.38
2022-11-03T10:10:34.089Z,98854.53
2022-11-03T10:13:02.094Z,98855.50
2022-11-03T10:15:29.084Z,98843.88
2022-11-03T10:17:55.998Z,98833.97
2022-11-03T10:20:23.397Z,98825.66
2022-11-03T10:22:55.044Z,98827.41
2022-11-03T10:25:36.281Z,98828.94
2022-11-03T10:28:19.259Z,98820.91
2022-11-03T10:31:09.996Z,98815.44
2022-11-03T10:33:52.094Z,98811.22
2022-11-03T10:36:18.683Z,98801.63
2022-11-03T10:38:45.749Z,98791.63
2022-11-03T10:41:26.936Z,98781.50
2022-11-03T10:44:12.028Z,98779.47
2022-11-03T10:46:55.517Z,98774.03
2022-11-03T10:49:22.221Z,98771.13
2022-11-03T10:51:53.421Z,98762.19
2022-11-03T10:54:23.215Z,98762.34
2022-11-03T10:56:51.114Z,98750.03
2022-11-03T10:59:24.643Z,98755.00
2022-11-03T11:01:51.574Z,98760.59
2022-11-03T11:04:19.928Z,98752.91
2022-11-03T11:06:47.093Z,98754.34
2022-11-03T11:09:20.191Z,98752.09
2022-11-03T11:12:16.127Z,98724.50
2022-11-03T11:14:53.061Z,98718.53
2022-11-03T11:17:44.719Z,98700.94
2022-11-03T11:20:29.570Z,98692.59
2022-11-03T11:23:16.093Z,98682.56
2022-11-03T11:26:08.814Z,98667.56
2022-11-03T11:28:36.669Z,98665.31
2022-11-03T11:31:32.602Z,98644.00
2022-11-03T11:34:12.314Z,98649.63
2022-11-03T11:36:41.041Z,98647.19
2022-11-03T11:39:34.058Z,98660.69
2022-11-03T11:42:09.833Z,98652.19
2022-11-03T11:44:45.939Z,98649.84
2022-11-03T11:47:27.579Z,98651.56
2022-11-03T11:50:12.009Z,98624.53
2022-11-03T11:53:08.512Z,98609.06
2022-11-03T11:55:38.746Z,98596.84
2022-11-03T11:58:14.499Z,98590.75
2022-11-03T12:00:51.415Z,98577.91
2022-11-03T12:03:24.535Z,98577.94
2022-11-03T12:05:51.103Z,98562.31
2022-11-03T12:08:18.993Z,98561.91
2022-11-03T12:10:53.729Z,98554.88
2022-11-03T12:13:47.262Z,98552.41
2022-11-03T12:16:33.445Z,98541.53
2022-11-03T12:19:38.832Z,98523.75
2022-11-03T12:22:08.962Z,98518.22
2022-11-03T12:24:36.949Z,98514.13
2022-11-03T12:27:17.941Z,98522.78
2022-11-03T12:29:44.551Z,98520.69
2022-11-03T12:32:25.822Z,98533.38
2022-11-03T12:34:57.577Z,98558.28
2022-11-03T12:37:24.301Z,98565.25
2022-11-03T12:39:51.012Z,98561.50
2022-11-03T12:42:18.957Z,98557.97
2022-11-03T12:44:45.653Z,98537.13
2022-11-03T12:47:12.344Z,98537.81
2022-11-03T12:49:38.877Z,98536.22
2022-11-03T12:52:08.336Z,98524.44
2022-11-03T12:54:35.486Z,98518.06
2022-11-03T12:57:02.346Z,98497.03
2022-11-03T12:59:29.240Z,98497.03
2022-11-03T13:01:56.031Z,98487.00
2022-11-03T13:04:22.758Z,98483.91
2022-11-03T13:06:49.325Z,98477.25
2022-11-03T13:09:15.843Z,98481.78
2022-11-03T13:12:00.881Z,98488.19
2022-11-03T13:14:27.618Z,98509.66
2022-11-03T13:16:54.149Z,98502.53
2022-11-03T13:19:20.688Z,98497.41
2022-11-03T13:21:47.249Z,98503.78
2022-11-03T13:24:13.833Z,98494.03
2022-11-03T13:26:40.353Z,98496.28
2022-11-03T13:29:06.916Z,98480.66
2022-11-03T13:31:33.469Z,98479.41
2022-11-03T13:33:59.970Z,98482.00
2022-11-03T13:36:26.726Z,98474.97
2022-11-03T13:38:53.419Z,98472.72
2022-11-03T13:41:19.958Z,98460.28
2022-11-03T13:43:46.484Z,98454.88
2022-11-03T13:46:13.052Z,98440.16
2022-11-03T13:51:26.396Z,98434.97
2022-11-03T13:59:26.793Z,98390.84
2022-11-03T14:07:12.267Z,98364.94
2022-11-03T14:09:39.027Z,98361.13
2022-11-03T14:12:24.608Z,98358.72
2022-11-03T14:14:51.154Z,98353.97
2022-11-03T14:17:17.678Z,98357.00
2022-11-03T14:19:50.171Z,98355.56
2022-11-03T14:22:19.414Z,98360.19
2022-11-03T14:24:46.038Z,98353.84
2022-11-03T14:27:13.013Z,98339.16
2022-11-03T14:29:39.595Z,98334.53
2022-11-03T14:32:06.386Z,98332.16
2022-11-03T14:34:33.212Z,98315.13
2022-11-03T14:36:59.884Z,98318.94
2022-11-03T14:39:27.043Z,98320.09
2022-11-03T14:42:05.802Z,98304.91
2022-11-03T14:44:38.316Z,98302.88
2022-11-03T14:47:07.291Z,98311.81
2022-11-03T14:49:34.763Z,98300.16
2022-11-03T14:52:02.439Z,98301.75
2022-11-03T14:54:30.727Z,98302.88
2022-11-03T14:56:57.691Z,98296.22
2022-11-03T14:59:24.791Z,98308.53
2022-11-03T15:01:52.355Z,98289.75
2022-11-03T15:04:19.454Z,98294.28
2022-11-03T15:06:46.812Z,98289.53
2022-11-03T15:09:16.483Z,98280.94
2022-11-03T15:11:44.052Z,98280.94
2022-11-03T15:14:11.985Z,98282.03
2022-11-03T15:16:38.980Z,98278.56
2022-11-03T15:19:06.716Z,98277.75
2022-11-03T15:21:33.803Z,98269.97
2022-11-03T15:26:47.051Z,98272.09
2022-11-03T15:29:13.810Z,98261.91
2022-11-03T15:31:46.167Z,98251.75
2022-11-03T15:34:14.082Z,98257.50
2022-11-03T15:36:40.771Z,98239.56
2022-11-03T15:39:07.310Z,98242.59
2022-11-03T15:41:33.836Z,98230.47
2022-11-03T15:44:00.338Z,98231.59
2022-11-03T15:46:26.941Z,98221.91
2022-11-03T15:48:54.657Z,98225.06
2022-11-03T15:51:21.395Z,98217.38
2022-11-03T15:53:47.941Z,98219.00
2022-11-03T15:56:14.576Z,98200.38
2022-11-03T15:58:41.126Z,98196.41
2022-11-03T16:01:07.845Z,98196.84
2022-11-03T16:03:34.567Z,98188.63
2022-11-03T16:06:01.122Z,98171.56
2022-11-03T16:08:27.705Z,98165.69
2022-11-03T16:10:57.868Z,98157.56
2022-11-03T16:13:25.532Z,98148.31
2022-11-03T16:15:54.430Z,98139.72
2022-11-03T16:18:21.539Z,98139.72
2022-11-03T16:20:48.133Z,98132.72
2022-11-03T16:23:14.874Z,98123.84
2022-11-03T16:25:41.396Z,98112.50
2022-11-03T16:28:08.185Z,98105.50
2022-11-03T16:30:35.384Z,98109.34
2022-11-03T16:33:02.018Z,98092.31
2022-11-03T16:35:29.791Z,98086.00
2022-11-03T16:37:56.744Z,98085.19
2022-11-03T16:40:23.748Z,98089.16
2022-11-03T16:42:50.280Z,98064.34
2022-11-03T16:45:22.393Z,98066.59
2022-11-03T16:47:50.048Z,98060.94
2022-11-03T16:50:17.493Z,98064.22
2022-11-03T16:52:45.660Z,98048.78
2022-11-03T16:55:12.388Z,98046.06
2022-11-03T16:57:39.715Z,98046.50
2022-11-03T17:00:08.957Z,98054.19
2022-11-03T17:02:35.666Z,98059.59
2022-11-03T17:05:02.237Z,98042.56
2022-11-03T17:07:28.742Z,98034.75
2022-11-03T17:09:55.390Z,98041.75
2022-11-03T17:12:21.968Z,98019.75
2022-11-03T17:14:51.258Z,98014.66
2022-11-03T17:17:20.732Z,98012.88
2022-11-03T17:19:47.478Z,98012.31
2022-11-03T17:22:14.438Z,98024.84
2022-11-03T17:24:41.146Z,97999.34
2022-11-03T17:27:20.701Z,98010.50
2022-11-03T17:29:54.267Z,98007.03
2022-11-03T17:32:26.197Z,97983.78
2022-11-03T17:34:53.656Z,97975.66
2022-11-03T17:37:21.018Z,97970.56
2022-11-03T17:39:47.797Z,97993.00
2022-11-03T17:42:17.499Z,97990.78
2022-11-03T17:44:45.819Z,98007.47
2022-11-03T17:47:12.372Z,98014.09
2022-11-03T17:49:39.087Z,98031.94
2022-11-03T17:52:09.806Z,98040.88
2022-11-03T17:54:36.339Z,98057.22
2022-11-03T17:57:04.116Z,98055.75
2022-11-03T17:59:30.692Z,98071.00
2022-11-03T18:01:57.680Z,98081.03
2022-11-03T18:04:24.309Z,98081.84
2022-11-03T18:06:51.005Z,98086.13
2022-11-03T18:09:17.603Z,98092.78
2022-11-03T18:12:03.053Z,98100.91
2022-11-03T18:14:30.142Z,98107.44
2022-11-03T18:17:02.614Z,98097.75
2022-11-03T18:19:30.580Z,98093.91
2022-11-03T18:21:57.175Z,98086.25
2022-11-03T18:24:23.765Z,98079.72
2022-11-03T18:26:50.284Z,98083.56
2022-11-03T18:29:16.877Z,98091.09
2022-11-03T18:31:50.680Z,98080.94
2022-11-03T18:34:22.159Z,98083.31
2022-11-03T18:36:48.993Z,98101.03
2022-11-03T18:39:25.670Z,98095.50
2022-11-03T18:41:52.248Z,98112.50
2022-11-03T18:44:30.785Z,98110.84
2022-11-03T18:46:58.454Z,98120.09
2022-11-03T18:49:27.181Z,98126.19
2022-11-03T18:52:03.366Z,98110.56
2022-11-03T18:54:32.683Z,98101.31
2022-11-03T18:56:59.993Z,98113.28
2022-11-03T18:59:37.081Z,98112.84
2022-11-03T19:02:15.205Z,98096.59
2022-11-03T19:04:41.782Z,98091.63
2022-11-03T19:07:11.709Z,98100.88
2022-11-03T19:09:38.845Z,98103.56
2022-11-03T19:12:05.952Z,98100.78
2022-11-03T19:14:36.053Z,98091.53
2022-11-03T19:17:24.010Z,98105.84
2022-11-03T19:19:52.470Z,98104.94
2022-11-03T19:22:21.757Z,98099.19
2022-11-03T19:24:48.846Z,98073.13
2022-11-03T19:27:28.911Z,98073.78
2022-11-03T19:29:57.305Z,98078.75
2022-11-03T19:32:26.527Z,98089.75
2022-11-03T19:35:06.309Z,98096.28
2022-11-03T19:40:06.895Z,98081.50
2022-11-03T19:40:20.682Z,98077.69
2022-11-03T19:42:48.741Z,98091.53
2022-11-03T19:45:18.402Z,98104.28
2022-11-03T19:48:18.364Z,98091.09
2022-11-03T19:50:43.708Z,98098.44
2022-11-03T19:53:16.304Z,98106.41
2022-11-03T19:55:42.897Z,98114.53
2022-11-03T19:58:21.593Z,98132.72
2022-11-03T20:00:49.281Z,98136.19
2022-11-03T20:03:16.223Z,98126.50
2022-11-03T20:05:48.956Z,98136.19
2022-11-03T20:08:19.126Z,98160.41
2022-11-03T20:10:47.847Z,98144.97
2022-11-03T20:13:17.175Z,98150.38
2022-11-03T20:15:43.764Z,98156.47
2022-11-03T20:18:14.238Z,98157.59
2022-11-03T20:20:42.588Z,98159.50
2022-11-03T20:23:27.193Z,98172.91
2022-11-03T20:25:54.654Z,98173.38
2022-11-03T20:28:25.089Z,98151.72
2022-11-03T20:30:52.595Z,98177.22
2022-11-03T20:33:22.371Z,98184.88
2022-11-03T20:35:51.317Z,98181.03
2022-11-03T20:38:19.583Z,98170.22
2022-11-03T20:40:47.920Z,98170.84
2022-11-03T20:43:35.683Z,98183.91
2022-11-03T20:46:04.031Z,98183.28
2022-11-03T20:48:30.539Z,98184.88
2022-11-03T20:50:57.469Z,98182.94
2022-11-03T20:53:25.295Z,98188.22
2022-11-03T20:55:52.432Z,98194.75
2022-11-03T20:58:19.350Z,98205.56
2022-11-03T21:00:47.934Z,98194.28
2022-11-03T21:03:44.960Z,98197.66
2022-11-03T21:06:16.960Z,98199.91
2022-11-03T21:08:45.482Z,98206.91
2022-11-03T21:11:26.895Z,98211.41
2022-11-03T21:13:56.893Z,98222.69
2022-11-03T21:16:43.506Z,98214.09
2022-11-03T21:19:40.163Z,98217.00
2022-11-03T21:22:54.688Z,98217.19
2022-11-03T21:25:23.296Z,98227.53
2022-11-03T21:27:50.752Z,98239.94
2022-11-03T21:30:18.185Z,98257.28
2022-11-03T21:32:44.828Z,98273.06
2022-11-03T21:35:16.912Z,98264.03
2022-11-03T21:37:43.504Z,98257.41
2022-11-03T21:40:11.146Z,98282.22
2022-11-03T21:42:56.216Z,98297.63
2022-11-03T21:45:22.771Z,98313.41
2022-11-03T21:48:13.175Z,98307.22
2022-11-03T21:50:40.360Z,98306.09
2022-11-03T21:53:07.316Z,98298.28
2022-11-03T21:55:34.450Z,98295.28
2022-11-03T21:58:02.002Z,98273.19
2022-11-03T22:00:28.848Z,98285.88
2022-11-03T22:02:55.430Z,98263.44
2022-11-03T22:05:22.013Z,98261.56
2022-11-03T22:07:48.541Z,98262.22
2022-11-03T22:10:15.107Z,98274.81
2022-11-03T22:12:41.596Z,98277.34
2022-11-03T22:15:26.908Z,98291.69
2022-11-03T22:17:59.625Z,98302.81
2022-11-03T22:20:44.893Z,98312.81
2022-11-03T22:23:31.652Z,98322.38
2022-11-03T22:26:19.328Z,98312.22
2022-11-03T22:28:45.883Z,98320.47
2022-11-03T22:31:31.013Z,98337.34
2022-11-03T22:34:15.847Z,98328.31
2022-11-03T22:36:42.359Z,98327.84
2022-11-03T22:39:27.453Z,98333.25
2022-11-03T22:42:12.226Z,98340.06
2022-11-03T22:44:57.057Z,98348.06
2022-11-03T22:47:23.600Z,98358.25
2022-11-03T22:49:50.103Z,98365.06
2022-11-03T22:52:16.668Z,98379.69
2022-11-03T22:54:43.161Z,98371.13
2022-11-03T22:57:11.370Z,98364.13
2022-11-03T22:59:38.075Z,98369.53
2022-11-03T23:02:04.729Z,98369.22
2022-11-03T23:04:31.354Z,98375.41
2022-11-03T23:06:57.931Z,98375.88
2022-11-03T23:09:24.413Z,98376.53
2022-11-03T23:11:50.934Z,98371.75
2022-11-03T23:14:17.576Z,98387.97
2022-11-03T23:16:45.262Z,98408.66
2022-11-03T23:19:32.173Z,98403.72
2022-11-03T23:21:59.389Z,98415.63
2022-11-03T23:24:45.628Z,98408.97
2022-11-03T23:27:13.406Z,98423.56
2022-11-03T23:29:40.432Z,98428.38
2022-11-03T23:32:07.105Z,98428.84
2022-11-03T23:34:35.169Z,98432.66
2022-11-03T23:37:02.701Z,98435.03
2022-11-03T23:39:29.277Z,98433.59
2022-11-03T23:41:55.851Z,98425.16
2022-11-03T23:44:22.436Z,98440.91
2022-11-03T23:47:07.224Z,98433.78
2022-11-03T23:49:33.741Z,98443.91
2022-11-03T23:52:00.308Z,98432.16
2022-11-03T23:54:27.307Z,98436.25
2022-11-03T23:57:12.634Z,98441.19
2022-11-03T23:59:39.406Z,98456.94
